createdAt,value
2023-03-13T00:00:13.517Z,934.24
2023-03-13T00:01:14.148Z,934.25
2023-03-13T00:02:14.670Z,934.24
2023-03-13T00:03:14.993Z,934.21
2023-03-13T00:04:15.927Z,934.17
2023-03-13T00:05:17.043Z,934.17
2023-03-13T00:06:17.939Z,934.15
2023-03-13T00:07:18.205Z,934.11
2023-03-13T00:08:18.416Z,934.08
2023-03-13T00:09:19.334Z,934.03
2023-03-13T00:10:20.040Z,934.03
2023-03-13T00:11:20.958Z,934.01
2023-03-13T00:12:22.028Z,933.98
2023-03-13T00:13:22.548Z,933.97
2023-03-13T00:14:22.785Z,933.97
2023-03-13T00:15:22.982Z,933.88
2023-03-13T00:16:23.928Z,933.77
2023-03-13T00:17:24.085Z,933.81
2023-03-13T00:18:25.016Z,933.8
2023-03-13T00:19:25.937Z,933.8
2023-03-13T00:20:27.008Z,933.75
2023-03-13T00:21:27.643Z,933.7
2023-03-13T00:22:28.077Z,933.7
2023-03-13T00:23:28.316Z,933.65
2023-03-13T00:24:28.531Z,933.66
2023-03-13T00:25:29.025Z,933.62
2023-03-13T00:26:29.935Z,933.59
2023-03-13T00:27:30.289Z,933.58
2023-03-13T00:28:32.461Z,933.56
2023-03-13T00:29:31.964Z,933.55
2023-03-13T00:30:33.000Z,933.5
2023-03-13T00:31:33.496Z,933.46
2023-03-13T00:32:33.954Z,933.46
2023-03-13T00:33:34.233Z,933.46
2023-03-13T00:34:34.443Z,933.44
2023-03-13T00:35:35.480Z,933.4
2023-03-13T00:36:36.330Z,933.37
2023-03-13T00:37:37.265Z,933.36
2023-03-13T00:38:37.476Z,933.3
2023-03-13T00:39:37.744Z,933.31
2023-03-13T00:40:38.782Z,933.27
2023-03-13T00:41:39.703Z,933.22
2023-03-13T00:42:39.903Z,933.21
2023-03-13T00:43:40.987Z,933.19
2023-03-13T00:44:41.479Z,933.23
2023-03-13T00:45:42.142Z,933.19
2023-03-13T00:46:42.896Z,933.15
2023-03-13T00:47:43.818Z,933.12
2023-03-13T00:48:44.741Z,933.17
2023-03-13T00:49:44.946Z,933.1
2023-03-13T00:50:45.317Z,933.08
2023-03-13T00:51:45.916Z,933.09
2023-03-13T00:52:46.827Z,933.07
2023-03-13T00:53:47.865Z,933.08
2023-03-13T00:54:48.402Z,933.11
2023-03-13T00:55:49.344Z,933.05
2023-03-13T00:56:49.842Z,933.06
2023-03-13T00:57:50.751Z,933.02
2023-03-13T00:58:51.270Z,933.02
2023-03-13T00:59:51.475Z,932.99
2023-03-13T01:00:52.084Z,933.04
2023-03-13T01:01:53.007Z,932.98
2023-03-13T01:02:53.632Z,932.98
2023-03-13T01:03:53.794Z,932.99
2023-03-13T01:04:54.721Z,933.01
2023-03-13T01:05:55.784Z,933.01
2023-03-13T01:06:56.434Z,932.96
2023-03-13T01:07:56.955Z,932.99
2023-03-13T01:08:57.177Z,932.95
2023-03-13T01:09:58.115Z,932.88
2023-03-13T01:10:58.846Z,932.89
2023-03-13T01:11:59.801Z,932.87
2023-03-13T01:13:00.741Z,932.87
2023-03-13T01:14:01.342Z,932.83
2023-03-13T01:15:02.257Z,932.82
2023-03-13T01:16:02.516Z,932.79
2023-03-13T01:17:02.675Z,932.77
2023-03-13T01:18:02.892Z,932.74
2023-03-13T01:19:03.541Z,932.75
2023-03-13T01:20:04.090Z,932.8
2023-03-13T01:21:04.417Z,932.77
2023-03-13T01:22:05.023Z,932.75
2023-03-13T01:23:05.511Z,932.76
2023-03-13T01:24:06.430Z,932.76
2023-03-13T01:25:06.674Z,932.72
2023-03-13T01:26:06.881Z,932.73
2023-03-13T01:27:07.830Z,932.72
2023-03-13T01:28:08.070Z,932.74
2023-03-13T01:29:08.287Z,932.7
2023-03-13T01:30:08.925Z,932.75
2023-03-13T01:31:10.049Z,932.75
2023-03-13T01:32:11.105Z,932.71
2023-03-13T01:33:11.898Z,932.73
2023-03-13T01:34:12.167Z,932.71
2023-03-13T01:35:12.382Z,932.73
2023-03-13T01:36:12.873Z,932.75
2023-03-13T01:37:13.567Z,932.74
2023-03-13T01:38:13.780Z,932.66
2023-03-13T01:39:14.413Z,932.7
2023-03-13T01:40:15.034Z,932.67
2023-03-13T01:41:16.079Z,932.71
2023-03-13T01:42:16.658Z,932.71
2023-03-13T01:43:26.019Z,932.71
2023-03-13T01:44:18.036Z,932.63
2023-03-13T01:45:18.687Z,932.69
2023-03-13T01:46:19.872Z,932.68
2023-03-13T01:47:20.354Z,932.71
2023-03-13T01:48:20.570Z,932.72
2023-03-13T01:49:21.493Z,932.81
2023-03-13T01:50:22.416Z,932.82
2023-03-13T01:51:22.910Z,932.84
2023-03-13T01:52:23.531Z,932.83
2023-03-13T01:53:24.208Z,932.85
2023-03-13T01:54:25.150Z,932.81
2023-03-13T01:55:25.338Z,932.81
2023-03-13T01:56:25.537Z,932.74
2023-03-13T01:57:25.738Z,932.81
2023-03-13T01:58:26.801Z,932.81
2023-03-13T01:59:27.765Z,932.77
2023-03-13T02:00:28.730Z,932.74
2023-03-13T02:01:29.272Z,932.76
2023-03-13T02:02:29.426Z,932.75
2023-03-13T02:03:30.029Z,932.78
2023-03-13T02:04:30.238Z,932.74
2023-03-13T02:05:30.447Z,932.75
2023-03-13T02:06:31.403Z,932.76
2023-03-13T02:07:31.982Z,932.84
2023-03-13T02:08:32.488Z,932.85
2023-03-13T02:09:33.059Z,932.81
2023-03-13T02:10:33.278Z,932.86
2023-03-13T02:11:33.982Z,932.9
2023-03-13T02:12:34.190Z,932.9
2023-03-13T02:13:34.820Z,932.88
2023-03-13T02:14:35.511Z,932.88
2023-03-13T02:15:35.725Z,932.85
2023-03-13T02:16:36.421Z,932.89
2023-03-13T02:17:37.047Z,932.88
2023-03-13T02:18:37.250Z,932.86
2023-03-13T02:19:37.481Z,932.88
2023-03-13T02:20:38.194Z,932.91
2023-03-13T02:21:38.855Z,932.93
2023-03-13T02:22:39.437Z,932.9
2023-03-13T02:23:39.934Z,932.97
2023-03-13T02:24:40.839Z,932.91
2023-03-13T02:25:41.057Z,932.9
2023-03-13T02:26:41.275Z,932.88
2023-03-13T02:27:41.991Z,932.8
2023-03-13T02:28:42.344Z,932.81
2023-03-13T02:29:43.273Z,932.85
2023-03-13T02:30:43.936Z,932.86
2023-03-13T02:31:44.470Z,932.82
2023-03-13T02:32:44.683Z,932.83
2023-03-13T02:33:45.079Z,932.87
2023-03-13T02:34:45.290Z,932.84
2023-03-13T02:35:45.666Z,932.86
2023-03-13T02:36:46.464Z,932.82
2023-03-13T02:37:47.037Z,932.83
2023-03-13T02:38:47.248Z,932.85
2023-03-13T02:39:48.229Z,932.87
2023-03-13T02:40:48.428Z,932.88
2023-03-13T02:41:49.210Z,932.82
2023-03-13T02:42:49.420Z,932.83
2023-03-13T02:43:49.648Z,932.82
2023-03-13T02:44:50.584Z,932.8
2023-03-13T02:45:51.504Z,932.82
2023-03-13T02:46:52.075Z,932.8
2023-03-13T02:47:52.213Z,932.8
2023-03-13T02:48:52.430Z,932.79
2023-03-13T02:49:52.950Z,932.77
2023-03-13T02:50:53.446Z,932.83
2023-03-13T02:51:54.564Z,932.78
2023-03-13T02:52:55.214Z,932.71
2023-03-13T02:53:55.412Z,932.79
2023-03-13T02:54:56.346Z,932.83
2023-03-13T02:55:57.288Z,932.82
2023-03-13T02:56:57.512Z,932.77
2023-03-13T02:57:57.767Z,932.85
2023-03-13T02:58:58.281Z,932.89
2023-03-13T02:59:58.519Z,932.88
2023-03-13T03:00:59.488Z,932.81
2023-03-13T03:02:00.112Z,932.78
2023-03-13T03:03:01.030Z,932.84
2023-03-13T03:04:02.016Z,932.86
2023-03-13T03:05:02.396Z,932.89
2023-03-13T03:06:03.360Z,932.88
2023-03-13T03:07:04.300Z,932.83
2023-03-13T03:08:04.983Z,932.87
2023-03-13T03:09:05.904Z,932.9
2023-03-13T03:10:06.563Z,932.94
2023-03-13T03:11:06.754Z,932.92
2023-03-13T03:12:07.060Z,932.86
2023-03-13T03:13:07.971Z,932.9
2023-03-13T03:14:08.920Z,932.94
2023-03-13T03:15:09.119Z,932.91
2023-03-13T03:16:10.129Z,932.9
2023-03-13T03:17:10.865Z,932.97
2023-03-13T03:18:11.066Z,932.93
2023-03-13T03:19:11.285Z,932.96
2023-03-13T03:20:12.001Z,932.96
2023-03-13T03:21:12.533Z,932.98
2023-03-13T03:22:13.308Z,932.95
2023-03-13T03:23:13.872Z,932.9
2023-03-13T03:24:14.824Z,932.88
2023-03-13T03:25:15.205Z,932.91
2023-03-13T03:26:16.121Z,932.94
2023-03-13T03:27:17.055Z,932.82
2023-03-13T03:28:18.009Z,932.82
2023-03-13T03:29:18.265Z,932.88
2023-03-13T03:30:18.906Z,932.85
2023-03-13T03:31:19.280Z,932.89
2023-03-13T03:32:20.196Z,932.89
2023-03-13T03:33:20.764Z,932.81
2023-03-13T03:34:21.671Z,932.79
2023-03-13T03:35:22.175Z,932.85
2023-03-13T03:36:22.964Z,932.81
2023-03-13T03:37:23.915Z,932.8
2023-03-13T03:38:24.515Z,932.84
2023-03-13T03:39:25.435Z,932.84
2023-03-13T03:40:25.643Z,932.83
2023-03-13T03:41:26.600Z,932.8
2023-03-13T03:42:26.740Z,932.81
2023-03-13T03:43:27.723Z,932.8
2023-03-13T03:44:28.663Z,932.7
2023-03-13T03:45:29.652Z,932.71
2023-03-13T03:46:30.138Z,932.73
2023-03-13T03:47:30.723Z,932.71
2023-03-13T03:48:31.260Z,932.73
2023-03-13T03:49:32.311Z,932.67
2023-03-13T03:50:32.720Z,932.7
2023-03-13T03:51:33.252Z,932.73
2023-03-13T03:52:34.316Z,932.78
2023-03-13T03:53:34.935Z,932.77
2023-03-13T03:54:35.582Z,932.77
2023-03-13T03:55:36.124Z,932.72
2023-03-13T03:56:36.912Z,932.74
2023-03-13T03:57:37.097Z,932.77
2023-03-13T03:58:37.314Z,932.78
2023-03-13T03:59:38.258Z,932.76
2023-03-13T04:00:38.452Z,932.73
2023-03-13T04:01:38.672Z,932.77
2023-03-13T04:02:38.833Z,932.72
2023-03-13T04:03:39.944Z,932.73
2023-03-13T04:04:40.231Z,932.69
2023-03-13T04:05:40.870Z,932.71
2023-03-13T04:06:41.376Z,932.62
2023-03-13T04:07:42.339Z,932.62
2023-03-13T04:08:42.905Z,932.62
2023-03-13T04:09:43.838Z,932.61
2023-03-13T04:10:44.513Z,932.61
2023-03-13T04:11:45.016Z,932.52
2023-03-13T04:12:46.047Z,932.56
2023-03-13T04:13:46.965Z,932.49
2023-03-13T04:14:47.175Z,932.54
2023-03-13T04:15:47.423Z,932.54
2023-03-13T04:16:48.436Z,932.53
2023-03-13T04:17:48.792Z,932.52
2023-03-13T04:18:49.138Z,932.55
2023-03-13T04:19:49.773Z,932.53
2023-03-13T04:20:50.695Z,932.49
2023-03-13T04:21:51.194Z,932.44
2023-03-13T04:22:51.980Z,932.47
2023-03-13T04:23:52.564Z,932.45
2023-03-13T04:24:52.784Z,932.49
2023-03-13T04:25:53.132Z,932.46
2023-03-13T04:26:53.621Z,932.44
2023-03-13T04:27:54.562Z,932.4
2023-03-13T04:28:54.923Z,932.34
2023-03-13T04:29:55.565Z,932.34
2023-03-13T04:30:56.150Z,932.3
2023-03-13T04:31:56.434Z,932.27
2023-03-13T04:32:57.211Z,932.31
2023-03-13T04:33:57.766Z,932.3
2023-03-13T04:34:58.024Z,932.27
2023-03-13T04:35:58.361Z,932.26
2023-03-13T04:36:58.820Z,932.31
2023-03-13T04:37:59.178Z,932.26
2023-03-13T04:38:59.741Z,932.28
2023-03-13T04:40:00.227Z,932.25
2023-03-13T04:41:01.164Z,932.22
2023-03-13T04:42:02.088Z,932.21
2023-03-13T04:43:02.423Z,932.19
2023-03-13T04:44:03.492Z,932.21
2023-03-13T04:45:04.432Z,932.19
2023-03-13T04:46:05.174Z,932.14
2023-03-13T04:47:06.145Z,932.13
2023-03-13T04:48:07.075Z,932.16
2023-03-13T04:49:08.951Z,932.21
2023-03-13T04:50:08.523Z,932.19
2023-03-13T04:51:09.150Z,932.19
2023-03-13T04:52:10.130Z,932.17
2023-03-13T04:53:11.019Z,932.16
2023-03-13T04:54:11.638Z,932.15
2023-03-13T04:55:12.575Z,932.17
2023-03-13T04:56:13.193Z,932.15
2023-03-13T04:57:13.374Z,932.11
2023-03-13T04:58:13.860Z,932.1
2023-03-13T04:59:14.355Z,932.05
2023-03-13T05:00:14.985Z,932
2023-03-13T05:01:15.937Z,932
2023-03-13T05:02:16.219Z,932.01
2023-03-13T05:03:17.290Z,931.94
2023-03-13T05:04:18.247Z,931.95
2023-03-13T05:05:19.014Z,931.92
2023-03-13T05:06:20.041Z,931.88
2023-03-13T05:07:20.528Z,931.84
2023-03-13T05:08:20.914Z,931.82
2023-03-13T05:09:21.485Z,931.8
2023-03-13T05:10:21.698Z,931.8
2023-03-13T05:11:22.332Z,931.77
2023-03-13T05:12:23.260Z,931.76
2023-03-13T05:13:24.311Z,931.71
2023-03-13T05:14:25.236Z,931.69
2023-03-13T05:15:26.148Z,931.68
2023-03-13T05:16:27.140Z,931.65
2023-03-13T05:17:27.376Z,931.63
2023-03-13T05:18:27.870Z,931.64
2023-03-13T05:19:28.784Z,931.63
2023-03-13T05:20:29.294Z,931.67
2023-03-13T05:21:29.580Z,931.66
2023-03-13T05:22:30.530Z,931.71
2023-03-13T05:23:31.322Z,931.71
2023-03-13T05:24:31.926Z,931.7
2023-03-13T05:25:32.615Z,931.65
2023-03-13T05:26:32.836Z,931.69
2023-03-13T05:27:33.370Z,931.65
2023-03-13T05:28:33.598Z,931.63
2023-03-13T05:29:34.127Z,931.63
2023-03-13T05:30:34.660Z,931.6
2023-03-13T05:31:35.004Z,931.65
2023-03-13T05:32:35.621Z,931.65
2023-03-13T05:33:35.838Z,931.64
2023-03-13T05:34:36.483Z,931.65
2023-03-13T05:35:36.869Z,931.63
2023-03-13T05:36:37.491Z,931.65
2023-03-13T05:37:40.254Z,931.65
2023-03-13T05:38:38.404Z,931.69
2023-03-13T05:39:39.020Z,931.69
2023-03-13T05:40:39.689Z,931.66
2023-03-13T05:41:40.628Z,931.74
2023-03-13T05:42:41.126Z,931.69
2023-03-13T05:43:41.902Z,931.73
2023-03-13T05:44:42.553Z,931.75
2023-03-13T05:45:43.198Z,931.79
2023-03-13T05:46:43.936Z,931.74
2023-03-13T05:47:44.571Z,931.78
2023-03-13T05:48:44.781Z,931.74
2023-03-13T05:49:45.703Z,931.73
2023-03-13T05:50:46.339Z,931.7
2023-03-13T05:51:47.259Z,931.64
2023-03-13T05:52:48.203Z,931.65
2023-03-13T05:53:48.865Z,931.73
2023-03-13T05:54:49.455Z,931.77
2023-03-13T05:55:50.099Z,931.78
2023-03-13T05:56:50.302Z,931.8
2023-03-13T05:57:51.208Z,931.75
2023-03-13T05:58:51.425Z,931.71
2023-03-13T05:59:51.775Z,931.65
2023-03-13T06:00:51.985Z,931.56
2023-03-13T06:01:52.183Z,931.48
2023-03-13T06:02:52.678Z,931.32
2023-03-13T06:03:53.467Z,931.25
2023-03-13T06:04:54.310Z,931.33
2023-03-13T06:05:54.244Z,931.33
2023-03-13T06:06:55.187Z,931.37
2023-03-13T06:07:56.107Z,931.47
2023-03-13T06:08:57.057Z,931.46
2023-03-13T06:09:57.653Z,931.41
2023-03-13T06:10:58.581Z,931.36
2023-03-13T06:11:58.846Z,931.36
2023-03-13T06:13:03.145Z,931.37
2023-03-13T06:14:02.612Z,931.4
2023-03-13T06:15:02.856Z,931.44
2023-03-13T06:16:03.706Z,931.45
2023-03-13T06:17:04.088Z,931.41
2023-03-13T06:18:04.312Z,931.48
2023-03-13T06:19:05.237Z,931.47
2023-03-13T06:20:06.153Z,931.54
2023-03-13T06:21:07.089Z,931.54
2023-03-13T06:22:08.023Z,931.51
2023-03-13T06:23:08.399Z,931.49
2023-03-13T06:24:09.053Z,931.44
2023-03-13T06:25:09.637Z,931.4
2023-03-13T06:26:10.564Z,931.36
2023-03-13T06:27:11.047Z,931.41
2023-03-13T06:28:11.255Z,931.42
2023-03-13T06:29:11.488Z,931.4
2023-03-13T06:30:11.714Z,931.45
2023-03-13T06:31:12.641Z,931.46
2023-03-13T06:32:12.820Z,931.49
2023-03-13T06:33:13.345Z,931.49
2023-03-13T06:34:14.025Z,931.49
2023-03-13T06:35:14.730Z,931.45
2023-03-13T06:36:14.868Z,931.43
2023-03-13T06:37:15.041Z,931.41
2023-03-13T06:38:15.734Z,931.35
2023-03-13T06:39:15.998Z,931.29
2023-03-13T06:40:16.648Z,931.26
2023-03-13T06:41:16.857Z,931.26
2023-03-13T06:42:17.110Z,931.26
2023-03-13T06:43:18.093Z,931.32
2023-03-13T06:44:18.441Z,931.31
2023-03-13T06:45:18.695Z,931.31
2023-03-13T06:46:18.998Z,931.33
2023-03-13T06:47:19.483Z,931.34
2023-03-13T06:48:20.444Z,931.3
2023-03-13T06:49:21.092Z,931.28
2023-03-13T06:50:21.306Z,931.22
2023-03-13T06:51:22.240Z,931.3
2023-03-13T06:52:28.711Z,931.35
2023-03-13T06:53:23.695Z,931.32
2023-03-13T06:54:24.613Z,931.27
2023-03-13T06:55:25.202Z,931.2
2023-03-13T06:56:25.453Z,931.21
2023-03-13T06:57:26.091Z,931.17
2023-03-13T06:58:32.317Z,931.21
2023-03-13T06:59:27.728Z,931.25
2023-03-13T07:00:28.001Z,931.18
2023-03-13T07:01:28.303Z,931.12
2023-03-13T07:02:28.682Z,931.09
2023-03-13T07:03:28.965Z,931.1
2023-03-13T07:04:29.749Z,931.09
2023-03-13T07:05:30.398Z,931.13
2023-03-13T07:06:31.321Z,931.06
2023-03-13T07:07:32.410Z,931.08
2023-03-13T07:08:33.063Z,931.06
2023-03-13T07:09:33.774Z,931.12
2023-03-13T07:10:34.391Z,931.12
2023-03-13T07:11:35.336Z,931.12
2023-03-13T07:12:35.559Z,931.18
2023-03-13T07:13:35.905Z,931.16
2023-03-13T07:14:36.637Z,931.17
2023-03-13T07:15:37.125Z,931.17
2023-03-13T07:16:37.785Z,931.17
2023-03-13T07:17:38.329Z,931.21
2023-03-13T07:18:38.432Z,931.2
2023-03-13T07:19:38.645Z,931.23
2023-03-13T07:20:39.719Z,931.28
2023-03-13T07:21:40.012Z,931.28
2023-03-13T07:22:40.623Z,931.29
2023-03-13T07:23:41.529Z,931.26
2023-03-13T07:24:41.812Z,931.28
2023-03-13T07:25:41.849Z,931.34
2023-03-13T07:26:48.614Z,931.33
2023-03-13T07:27:43.106Z,931.32
2023-03-13T07:28:43.723Z,931.34
2023-03-13T07:29:43.949Z,931.39
2023-03-13T07:30:44.172Z,931.41
2023-03-13T07:31:44.485Z,931.39
2023-03-13T07:32:44.626Z,931.32
2023-03-13T07:33:44.875Z,931.28
2023-03-13T07:34:45.900Z,931.22
2023-03-13T07:35:46.545Z,931.22
2023-03-13T07:36:47.553Z,931.26
2023-03-13T07:37:48.478Z,931.21
2023-03-13T07:38:48.706Z,931.22
2023-03-13T07:39:49.396Z,931.26
2023-03-13T07:40:50.057Z,931.24
2023-03-13T07:41:50.575Z,931.2
2023-03-13T07:42:51.065Z,931.16
2023-03-13T07:43:51.260Z,931.1
2023-03-13T07:44:51.908Z,931.08
2023-03-13T07:45:52.654Z,931.1
2023-03-13T07:46:53.341Z,931.05
2023-03-13T07:47:53.609Z,931.1
2023-03-13T07:48:54.300Z,931.09
2023-03-13T07:49:54.585Z,931.07
2023-03-13T07:50:55.391Z,931.07
2023-03-13T07:51:55.661Z,931.07
2023-03-13T07:52:56.641Z,931.06
2023-03-13T07:53:57.449Z,931.07
2023-03-13T07:54:57.976Z,931.04
2023-03-13T07:55:58.573Z,931.04
2023-03-13T07:56:58.922Z,931.09
2023-03-13T07:57:59.872Z,931.05
2023-03-13T07:59:00.429Z,931.03
2023-03-13T08:00:01.147Z,930.94
2023-03-13T08:01:01.244Z,930.94
2023-03-13T08:02:01.827Z,930.97
2023-03-13T08:03:02.483Z,931
2023-03-13T08:04:03.310Z,931.07
2023-03-13T08:05:03.824Z,931.12
2023-03-13T08:06:04.039Z,931.15
2023-03-13T08:07:05.411Z,931.16
2023-03-13T08:08:06.455Z,931.14
2023-03-13T08:09:06.672Z,931.14
2023-03-13T08:10:06.748Z,931.14
2023-03-13T08:11:07.638Z,931.15
2023-03-13T08:12:07.755Z,931.16
2023-03-13T08:13:08.297Z,931.18
2023-03-13T08:14:08.576Z,931.26
2023-03-13T08:15:08.893Z,931.29
2023-03-13T08:16:09.216Z,931.24
2023-03-13T08:17:09.486Z,931.18
2023-03-13T08:18:10.419Z,931.12
2023-03-13T08:19:11.341Z,931.22
2023-03-13T08:20:12.359Z,931.2
2023-03-13T08:21:13.018Z,931.23
2023-03-13T08:22:13.857Z,931.18
2023-03-13T08:23:14.765Z,931.17
2023-03-13T08:24:15.051Z,931.13
2023-03-13T08:25:15.714Z,931.12
2023-03-13T08:26:16.417Z,931.12
2023-03-13T08:27:16.664Z,931.16
2023-03-13T08:28:17.657Z,931.09
2023-03-13T08:29:17.869Z,931.12
2023-03-13T08:30:18.499Z,931.09
2023-03-13T08:31:18.912Z,931.13
2023-03-13T08:32:19.905Z,931.11
2023-03-13T08:33:20.151Z,931.09
2023-03-13T08:34:21.096Z,931.06
2023-03-13T08:35:22.185Z,931.13
2023-03-13T08:36:22.760Z,931.11
2023-03-13T08:37:23.254Z,931.13
2023-03-13T08:38:23.522Z,931.19
2023-03-13T08:39:24.540Z,931.16
2023-03-13T08:40:24.786Z,931.2
2023-03-13T08:41:25.596Z,931.18
2023-03-13T08:42:26.088Z,931.16
2023-03-13T08:43:27.017Z,931.1
2023-03-13T08:44:27.982Z,931.07
2023-03-13T08:45:28.656Z,931.1
2023-03-13T08:46:29.308Z,931.11
2023-03-13T08:47:30.318Z,931.04
2023-03-13T08:48:30.542Z,930.96
2023-03-13T08:49:30.764Z,931.01
2023-03-13T08:50:30.967Z,930.97
2023-03-13T08:51:31.907Z,930.97
2023-03-13T08:52:32.444Z,931.03
2023-03-13T08:53:33.381Z,931.04
2023-03-13T08:54:33.663Z,931.02
2023-03-13T08:55:34.371Z,930.99
2023-03-13T08:56:35.048Z,930.99
2023-03-13T08:57:35.299Z,931.01
2023-03-13T08:58:35.562Z,930.99
2023-03-13T08:59:36.236Z,930.91
2023-03-13T09:00:36.498Z,930.89
2023-03-13T09:01:37.392Z,930.91
2023-03-13T09:02:37.656Z,930.86
2023-03-13T09:03:38.556Z,930.82
2023-03-13T09:04:39.178Z,930.8
2023-03-13T09:05:54.755Z,930.79
2023-03-13T09:06:40.418Z,930.83
2023-03-13T09:07:41.189Z,930.8
2023-03-13T09:08:41.400Z,930.8
2023-03-13T09:09:41.749Z,930.82
2023-03-13T09:10:42.423Z,930.79
2023-03-13T09:11:43.159Z,930.66
2023-03-13T09:12:43.378Z,930.63
2023-03-13T09:13:44.302Z,930.71
2023-03-13T09:14:44.817Z,930.65
2023-03-13T09:15:45.208Z,930.61
2023-03-13T09:16:45.714Z,930.64
2023-03-13T09:17:46.226Z,930.68
2023-03-13T09:18:46.636Z,930.71
2023-03-13T09:19:59.299Z,930.74
2023-03-13T09:20:48.977Z,930.75
2023-03-13T09:21:48.265Z,930.74
2023-03-13T09:22:49.229Z,930.68
2023-03-13T09:23:49.915Z,930.68
2023-03-13T09:24:50.231Z,930.71
2023-03-13T09:25:50.902Z,930.72
2023-03-13T09:27:00.542Z,930.68
2023-03-13T09:27:52.440Z,930.68
2023-03-13T09:28:52.839Z,930.7
2023-03-13T09:29:53.598Z,930.64
2023-03-13T09:30:54.286Z,930.63
2023-03-13T09:31:54.902Z,930.64
2023-03-13T09:32:55.267Z,930.68
2023-03-13T09:33:56.010Z,930.65
2023-03-13T09:34:56.374Z,930.67
2023-03-13T09:35:57.493Z,930.6
2023-03-13T09:36:58.375Z,930.63
2023-03-13T09:37:59.319Z,930.59
2023-03-13T09:38:59.582Z,930.6
2023-03-13T09:40:00.527Z,930.56
2023-03-13T09:41:06.103Z,930.6
2023-03-13T09:42:01.995Z,930.61
2023-03-13T09:43:02.433Z,930.61
2023-03-13T09:44:03.100Z,930.64
2023-03-13T09:45:03.337Z,930.57
2023-03-13T09:46:04.070Z,930.65
2023-03-13T09:47:05.000Z,930.66
2023-03-13T09:48:05.218Z,930.68
2023-03-13T09:50:06.664Z,930.64
2023-03-13T09:51:07.670Z,930.62
2023-03-13T09:52:07.940Z,930.6
2023-03-13T09:53:08.886Z,930.63
2023-03-13T09:54:09.836Z,930.6
2023-03-13T09:55:10.055Z,930.54
2023-03-13T09:56:10.557Z,930.5
2023-03-13T09:57:11.295Z,930.47
2023-03-13T09:58:11.954Z,930.45
2023-03-13T09:59:12.275Z,930.47
2023-03-13T10:00:13.233Z,930.51
2023-03-13T10:01:13.509Z,930.46
2023-03-13T10:02:14.204Z,930.48
2023-03-13T10:03:14.911Z,930.44
2023-03-13T10:04:15.937Z,930.47
2023-03-13T10:05:16.810Z,930.44
2023-03-13T10:06:17.233Z,930.42
2023-03-13T10:07:17.821Z,930.49
2023-03-13T10:08:18.481Z,930.53
2023-03-13T10:09:19.417Z,930.57
2023-03-13T10:10:20.353Z,930.59
2023-03-13T10:11:21.358Z,930.55
2023-03-13T10:12:21.952Z,930.55
2023-03-13T10:13:22.195Z,930.53
2023-03-13T10:14:22.444Z,930.56
2023-03-13T10:15:22.974Z,930.54
2023-03-13T10:16:23.328Z,930.54
2023-03-13T10:17:24.244Z,930.55
2023-03-13T10:18:24.952Z,930.54
2023-03-13T10:19:25.895Z,930.55
2023-03-13T10:20:26.140Z,930.5
2023-03-13T10:21:27.081Z,930.5
2023-03-13T10:22:28.035Z,930.48
2023-03-13T10:23:28.322Z,930.47
2023-03-13T10:24:28.723Z,930.48
2023-03-13T10:25:29.077Z,930.51
2023-03-13T10:26:29.781Z,930.53
2023-03-13T10:27:30.583Z,930.57
2023-03-13T10:28:31.659Z,930.57
2023-03-13T10:29:32.330Z,930.57
2023-03-13T10:30:32.670Z,930.6
2023-03-13T10:31:33.157Z,930.6
2023-03-13T10:32:33.826Z,930.56
2023-03-13T10:33:34.106Z,930.54
2023-03-13T10:34:34.350Z,930.48
2023-03-13T10:35:34.665Z,930.49
2023-03-13T10:36:34.869Z,930.45
2023-03-13T10:37:35.083Z,930.47
2023-03-13T10:38:36.026Z,930.44
2023-03-13T10:39:37.100Z,930.4
2023-03-13T10:40:37.351Z,930.45
2023-03-13T10:41:38.036Z,930.43
2023-03-13T10:42:38.654Z,930.45
2023-03-13T10:43:39.579Z,930.43
2023-03-13T10:44:40.557Z,930.43
2023-03-13T10:45:41.235Z,930.49
2023-03-13T10:46:41.551Z,930.43
2023-03-13T10:47:42.241Z,930.42
2023-03-13T10:48:42.755Z,930.47
2023-03-13T10:49:43.046Z,930.47
2023-03-13T10:50:43.754Z,930.45
2023-03-13T10:51:44.755Z,930.47
2023-03-13T10:52:45.279Z,930.44
2023-03-13T10:53:45.670Z,930.45
2023-03-13T10:54:46.619Z,930.38
2023-03-13T10:55:47.164Z,930.39
2023-03-13T10:56:48.313Z,930.33
2023-03-13T10:57:48.940Z,930.31
2023-03-13T10:58:49.188Z,930.28
2023-03-13T10:59:49.444Z,930.27
2023-03-13T11:00:50.078Z,930.25
2023-03-13T11:01:50.312Z,930.22
2023-03-13T11:02:50.687Z,930.22
2023-03-13T11:03:51.240Z,930.19
2023-03-13T11:04:52.001Z,930.15
2023-03-13T11:05:52.507Z,930.12
2023-03-13T11:06:52.993Z,930.12
2023-03-13T11:07:53.966Z,930.07
2023-03-13T11:08:54.275Z,930.03
2023-03-13T11:09:54.797Z,930.02
2023-03-13T11:10:55.106Z,930.02
2023-03-13T11:11:55.671Z,930.01
2023-03-13T11:12:56.555Z,930
2023-03-13T11:13:57.572Z,930.01
2023-03-13T11:14:57.877Z,930.04
2023-03-13T11:15:58.470Z,930.05
2023-03-13T11:16:59.264Z,930.08
2023-03-13T11:17:59.824Z,930.11
2023-03-13T11:19:00.280Z,930.05
2023-03-13T11:20:00.429Z,930.03
2023-03-13T11:21:12.115Z,930.03
2023-03-13T11:22:01.760Z,930.05
2023-03-13T11:23:02.213Z,930.02
2023-03-13T11:24:03.156Z,930.03
2023-03-13T11:25:04.131Z,930.05
2023-03-13T11:26:04.568Z,930.04
2023-03-13T11:27:06.236Z,930.05
2023-03-13T11:28:07.070Z,930.04
2023-03-13T11:29:07.339Z,929.97
2023-03-13T11:30:08.331Z,929.99
2023-03-13T11:31:09.327Z,929.95
2023-03-13T11:32:09.646Z,929.94
2023-03-13T11:33:10.351Z,929.97
2023-03-13T11:34:11.303Z,929.95
2023-03-13T11:35:11.774Z,929.93
2023-03-13T11:36:12.600Z,929.96
2023-03-13T11:37:13.139Z,929.93
2023-03-13T11:38:13.425Z,929.92
2023-03-13T11:39:13.666Z,929.88
2023-03-13T11:40:14.662Z,929.85
2023-03-13T11:41:15.620Z,929.84
2023-03-13T11:42:15.910Z,929.84
2023-03-13T11:43:24.849Z,929.84
2023-03-13T11:44:17.208Z,929.85
2023-03-13T11:45:30.978Z,929.78
2023-03-13T11:46:18.934Z,929.75
2023-03-13T11:47:19.700Z,929.69
2023-03-13T11:48:20.082Z,929.7
2023-03-13T11:49:20.320Z,929.68
2023-03-13T11:50:21.194Z,929.58
2023-03-13T11:51:21.914Z,929.58
2023-03-13T11:52:22.262Z,929.56
2023-03-13T11:53:22.826Z,929.54
2023-03-13T11:54:23.754Z,929.56
2023-03-13T11:55:24.030Z,929.55
2023-03-13T11:56:24.744Z,929.53
2023-03-13T11:57:25.513Z,929.48
2023-03-13T11:58:26.270Z,929.47
2023-03-13T11:59:26.795Z,929.42
2023-03-13T12:00:27.814Z,929.39
2023-03-13T12:01:28.911Z,929.44
2023-03-13T12:02:29.448Z,929.42
2023-03-13T12:03:30.505Z,929.35
2023-03-13T12:04:31.417Z,929.35
2023-03-13T12:05:32.101Z,929.32
2023-03-13T12:06:32.553Z,929.28
2023-03-13T12:07:33.164Z,929.21
2023-03-13T12:08:33.408Z,929.14
2023-03-13T12:09:33.961Z,929.09
2023-03-13T12:10:34.475Z,929.02
2023-03-13T12:11:34.990Z,929.01
2023-03-13T12:12:35.803Z,929.05
2023-03-13T12:13:36.480Z,929.11
2023-03-13T12:14:36.630Z,929.11
2023-03-13T12:15:36.861Z,929.07
2023-03-13T12:16:37.621Z,929.03
2023-03-13T12:17:38.322Z,928.99
2023-03-13T12:18:39.125Z,929.03
2023-03-13T12:19:39.621Z,929.08
2023-03-13T12:20:40.310Z,929.06
2023-03-13T12:21:40.579Z,929.03
2023-03-13T12:22:41.432Z,929.05
2023-03-13T12:23:41.703Z,929
2023-03-13T12:24:42.784Z,929.01
2023-03-13T12:25:43.174Z,929.01
2023-03-13T12:26:44.130Z,928.99
2023-03-13T12:27:45.002Z,928.99
2023-03-13T12:28:45.911Z,928.98
2023-03-13T12:29:46.116Z,928.96
2023-03-13T12:30:47.106Z,928.91
2023-03-13T12:31:47.411Z,928.89
2023-03-13T12:32:48.011Z,928.86
2023-03-13T12:33:48.141Z,928.92
2023-03-13T12:34:49.129Z,928.9
2023-03-13T12:35:50.111Z,928.92
2023-03-13T12:36:50.294Z,928.93
2023-03-13T12:37:51.149Z,928.9
2023-03-13T12:38:52.098Z,928.9
2023-03-13T12:39:52.856Z,928.9